NOK170 VTBD-VTCN
Flight info
| Callsign | NOK170 |
|---|---|
| Flight time | 1h 5m |
| Altitude | 30000 |
| Route | UGUVO3C UGUVO Y27 PAKMO DCT PSL W29 UTTAR DCT DUGEL DCT ASUBI |
| Aircraft | B738/M-SDE2E3FGHIRWXY/LB1 |
Departure
| Time | 2026-04-27 23:50 |
|---|---|
| Airport | Don Mueang International Airport (VTBD) |
Arrival
| Time | 2026-04-28 00:56 |
|---|---|
| Airport | Nan Airport (VTCN) |
| Time | Latitude | Longitude | Altitude | Speed | Heading |
|---|---|---|---|---|---|
| 2026-04-27 23:34 | 13.91789 | 100.60329 | 17 ft | 0 kts | 28° |
| 2026-04-27 23:41 | 13.91787 | 100.60328 | 17 ft | 7 kts | 28° |
| 2026-04-27 23:41 | 13.91763 | 100.60316 | 17 ft | 9 kts | 23° |
| 2026-04-27 23:42 | 13.91738 | 100.60307 | 17 ft | 9 kts | 9° |
| 2026-04-27 23:42 | 13.91714 | 100.60308 | 17 ft | 8 kts | 321° |
| 2026-04-27 23:42 | 13.91701 | 100.60327 | 17 ft | 8 kts | 298° |
| 2026-04-27 23:42 | 13.91688 | 100.60351 | 17 ft | 8 kts | 298° |
| 2026-04-27 23:43 | 13.91675 | 100.60376 | 18 ft | 8 kts | 298° |
| 2026-04-27 23:43 | 13.91662 | 100.60397 | 16 ft | 8 kts | 322° |
| 2026-04-27 23:43 | 13.91639 | 100.60406 | 17 ft | 8 kts | 6° |
| 2026-04-27 23:43 | 13.91614 | 100.60398 | 16 ft | 9 kts | 30° |
| 2026-04-27 23:44 | 13.91591 | 100.60383 | 16 ft | 9 kts | 36° |
| 2026-04-27 23:44 | 13.91577 | 100.60373 | 16 ft | 7 kts | 29° |
| 2026-04-27 23:46 | 13.91623 | 100.60399 | 17 ft | 13 kts | 27° |
| 2026-04-27 23:46 | 13.91735 | 100.60460 | 17 ft | 23 kts | 28° |
| 2026-04-27 23:47 | 13.91902 | 100.60555 | 17 ft | 32 kts | 28° |
| 2026-04-27 23:47 | 13.92122 | 100.60679 | 17 ft | 40 kts | 29° |
| 2026-04-27 23:47 | 13.92378 | 100.60822 | 19 ft | 37 kts | 28° |
| 2026-04-27 23:47 | 13.92588 | 100.60936 | 17 ft | 24 kts | 27° |
| 2026-04-27 23:48 | 13.92683 | 100.61011 | 17 ft | 18 kts | 79° |
| 2026-04-27 23:48 | 13.92616 | 100.61158 | 16 ft | 28 kts | 119° |
| 2026-04-27 23:48 | 13.92513 | 100.61348 | 17 ft | 21 kts | 119° |
| 2026-04-27 23:48 | 13.92453 | 100.61457 | 15 ft | 14 kts | 122° |
| 2026-04-27 23:49 | 13.92374 | 100.61503 | 15 ft | 11 kts | 173° |
| 2026-04-27 23:49 | 13.92295 | 100.61466 | 16 ft | 23 kts | 208° |
| 2026-04-27 23:49 | 13.91975 | 100.61288 | 17 ft | 80 kts | 208° |
| 2026-04-27 23:49 | 13.91324 | 100.60921 | 16 ft | 132 kts | 208° |
| 2026-04-27 23:50 | 13.90383 | 100.60400 | 57 ft | 170 kts | 208° |
| 2026-04-27 23:50 | 13.89324 | 100.59827 | 583 ft | 173 kts | 205° |
| 2026-04-27 23:50 | 13.88209 | 100.59212 | 995 ft | 191 kts | 207° |
| 2026-04-27 23:50 | 13.86995 | 100.58536 | 1439 ft | 207 kts | 207° |
| 2026-04-27 23:51 | 13.85756 | 100.57694 | 1879 ft | 224 kts | 230° |
| 2026-04-27 23:51 | 13.85198 | 100.56175 | 2490 ft | 238 kts | 270° |
| 2026-04-27 23:51 | 13.85702 | 100.54532 | 3139 ft | 252 kts | 307° |
| 2026-04-27 23:51 | 13.86874 | 100.53127 | 3775 ft | 267 kts | 310° |
| 2026-04-27 23:52 | 13.88130 | 100.51646 | 4414 ft | 279 kts | 306° |
| 2026-04-27 23:52 | 13.89103 | 100.49931 | 5268 ft | 279 kts | 295° |
| 2026-04-27 23:52 | 13.89970 | 100.48127 | 6082 ft | 282 kts | 294° |
| 2026-04-27 23:52 | 13.90818 | 100.46291 | 6908 ft | 286 kts | 293° |
| 2026-04-27 23:53 | 13.91672 | 100.44460 | 7715 ft | 288 kts | 294° |
| 2026-04-27 23:53 | 13.92561 | 100.42595 | 8463 ft | 292 kts | 295° |
| 2026-04-27 23:53 | 13.93471 | 100.40709 | 9213 ft | 295 kts | 295° |
| 2026-04-27 23:53 | 13.94390 | 100.38807 | 9961 ft | 298 kts | 295° |
| 2026-04-27 23:54 | 13.95325 | 100.36862 | 10448 ft | 311 kts | 295° |
| 2026-04-27 23:54 | 13.96468 | 100.34900 | 10788 ft | 329 kts | 309° |
| 2026-04-27 23:54 | 13.98251 | 100.33356 | 11224 ft | 342 kts | 330° |
| 2026-04-27 23:54 | 14.00520 | 100.32578 | 11877 ft | 348 kts | 350° |
| 2026-04-27 23:55 | 14.02935 | 100.32222 | 12565 ft | 352 kts | 353° |
| 2026-04-27 23:55 | 14.05385 | 100.31961 | 13247 ft | 356 kts | 354° |
| 2026-04-27 23:55 | 14.07869 | 100.31726 | 13910 ft | 360 kts | 354° |
| 2026-04-27 23:55 | 14.10374 | 100.31464 | 14565 ft | 364 kts | 353° |
| 2026-04-27 23:56 | 14.12897 | 100.31167 | 15211 ft | 367 kts | 352° |
| 2026-04-27 23:56 | 14.15448 | 100.30851 | 15804 ft | 371 kts | 352° |
| 2026-04-27 23:56 | 14.18026 | 100.30538 | 16415 ft | 375 kts | 352° |
| 2026-04-27 23:56 | 14.20629 | 100.30234 | 17004 ft | 378 kts | 352° |
| 2026-04-27 23:57 | 14.23255 | 100.29933 | 17580 ft | 382 kts | 352° |
| 2026-04-27 23:57 | 14.25909 | 100.29627 | 18144 ft | 385 kts | 352° |
| 2026-04-27 23:57 | 14.28548 | 100.29320 | 18678 ft | 388 kts | 352° |
| 2026-04-27 23:57 | 14.31242 | 100.29004 | 19210 ft | 391 kts | 352° |
| 2026-04-27 23:58 | 14.33959 | 100.28684 | 19725 ft | 394 kts | 352° |
| 2026-04-27 23:58 | 14.36699 | 100.28364 | 20230 ft | 397 kts | 352° |
| 2026-04-27 23:58 | 14.39459 | 100.28041 | 20719 ft | 400 kts | 352° |
| 2026-04-27 23:58 | 14.42232 | 100.27718 | 21189 ft | 403 kts | 352° |
| 2026-04-27 23:59 | 14.45027 | 100.27391 | 21649 ft | 405 kts | 352° |
| 2026-04-27 23:59 | 14.47808 | 100.26890 | 22088 ft | 406 kts | 342° |
| 2026-04-27 23:59 | 14.50522 | 100.26058 | 22519 ft | 408 kts | 341° |
| 2026-04-27 23:59 | 14.53242 | 100.25192 | 22933 ft | 411 kts | 341° |
| 2026-04-28 00:00 | 14.55976 | 100.24300 | 23337 ft | 413 kts | 340° |
| 2026-04-28 00:00 | 14.58724 | 100.23398 | 23729 ft | 415 kts | 340° |
| 2026-04-28 00:00 | 14.61488 | 100.22500 | 24107 ft | 418 kts | 340° |
| 2026-04-28 00:00 | 14.64274 | 100.21613 | 24469 ft | 421 kts | 343° |
| 2026-04-28 00:01 | 14.67133 | 100.21107 | 24846 ft | 425 kts | 354° |
| 2026-04-28 00:01 | 14.70096 | 100.20952 | 25203 ft | 427 kts | 355° |
| 2026-04-28 00:01 | 14.73075 | 100.20840 | 25555 ft | 430 kts | 356° |
| 2026-04-28 00:01 | 14.76067 | 100.20757 | 25898 ft | 431 kts | 356° |
| 2026-04-28 00:02 | 14.79079 | 100.20676 | 26233 ft | 433 kts | 355° |
| 2026-04-28 00:02 | 14.82094 | 100.20581 | 26559 ft | 434 kts | 355° |
| 2026-04-28 00:02 | 14.85123 | 100.20472 | 26883 ft | 436 kts | 355° |
| 2026-04-28 00:02 | 14.88158 | 100.20361 | 27283 ft | 435 kts | 354° |
| 2026-04-28 00:03 | 14.91175 | 100.20256 | 27736 ft | 433 kts | 355° |
| 2026-04-28 00:03 | 14.94179 | 100.20156 | 28177 ft | 431 kts | 354° |
| 2026-04-28 00:03 | 14.97175 | 100.20058 | 28603 ft | 430 kts | 354° |
| 2026-04-28 00:03 | 15.00163 | 100.19958 | 29030 ft | 429 kts | 354° |
| 2026-04-28 00:04 | 15.03140 | 100.19856 | 29455 ft | 427 kts | 354° |
| 2026-04-28 00:04 | 15.09093 | 100.19650 | 29876 ft | 431 kts | 354° |
| 2026-04-28 00:05 | 15.15011 | 100.19155 | 29881 ft | 419 kts | 342° |
| 2026-04-28 00:05 | 15.20568 | 100.17418 | 29887 ft | 417 kts | 338° |
| 2026-04-28 00:06 | 15.26047 | 100.15566 | 29887 ft | 417 kts | 338° |
| 2026-04-28 00:06 | 15.31569 | 100.13720 | 29883 ft | 417 kts | 338° |
| 2026-04-28 00:07 | 15.37104 | 100.11885 | 29885 ft | 417 kts | 338° |
| 2026-04-28 00:07 | 15.42632 | 100.10038 | 29886 ft | 417 kts | 338° |
| 2026-04-28 00:08 | 15.48168 | 100.08188 | 29880 ft | 418 kts | 338° |
| 2026-04-28 00:08 | 15.53699 | 100.06343 | 29874 ft | 418 kts | 337° |
| 2026-04-28 00:09 | 15.59234 | 100.04493 | 29875 ft | 418 kts | 337° |
| 2026-04-28 00:09 | 15.64769 | 100.02642 | 29877 ft | 418 kts | 337° |
| 2026-04-28 00:10 | 15.70270 | 100.00802 | 29879 ft | 418 kts | 337° |
| 2026-04-28 00:10 | 15.75805 | 99.98950 | 29878 ft | 419 kts | 337° |
| 2026-04-28 00:11 | 15.81353 | 99.97092 | 29874 ft | 418 kts | 337° |
| 2026-04-28 00:11 | 15.86893 | 99.95235 | 29877 ft | 418 kts | 337° |
| 2026-04-28 00:12 | 15.92433 | 99.93377 | 29876 ft | 418 kts | 337° |
| 2026-04-28 00:12 | 15.98156 | 99.92120 | 29889 ft | 430 kts | 354° |
| 2026-04-28 00:13 | 16.04182 | 99.92471 | 29879 ft | 434 kts | 359° |
| 2026-04-28 00:13 | 16.10200 | 99.93006 | 29873 ft | 433 kts | 360° |
| 2026-04-28 00:14 | 16.16171 | 99.93487 | 29875 ft | 433 kts | 359° |
| 2026-04-28 00:14 | 16.22181 | 99.93954 | 29876 ft | 433 kts | 359° |
| 2026-04-28 00:15 | 16.28198 | 99.94446 | 29878 ft | 434 kts | 359° |
| 2026-04-28 00:15 | 16.34142 | 99.95760 | 29889 ft | 448 kts | 19° |
| 2026-04-28 00:15 | 16.36876 | 99.97376 | 29901 ft | 456 kts | 32° |
| 2026-04-28 00:16 | 16.39438 | 99.99327 | 29887 ft | 457 kts | 33° |
| 2026-04-28 00:16 | 16.44458 | 100.03370 | 29879 ft | 456 kts | 34° |
| 2026-04-28 00:17 | 16.48642 | 100.06706 | 29877 ft | 456 kts | 33° |
| 2026-04-28 00:17 | 16.54541 | 100.11320 | 29881 ft | 456 kts | 33° |
| 2026-04-28 00:18 | 16.58778 | 100.14677 | 29890 ft | 457 kts | 33° |
| 2026-04-28 00:18 | 16.63839 | 100.18694 | 29896 ft | 457 kts | 33° |
| 2026-04-28 00:19 | 16.68917 | 100.22706 | 29893 ft | 458 kts | 33° |
| 2026-04-28 00:19 | 16.73961 | 100.26695 | 29902 ft | 457 kts | 32° |
| 2026-04-28 00:19 | 16.76670 | 100.28383 | 29905 ft | 451 kts | 20° |
| 2026-04-28 00:20 | 16.79592 | 100.29497 | 29910 ft | 442 kts | 8° |
| 2026-04-28 00:20 | 16.85565 | 100.30616 | 29908 ft | 434 kts | 3° |
| 2026-04-28 00:21 | 16.91550 | 100.31573 | 29906 ft | 435 kts | 3° |
| 2026-04-28 00:21 | 16.97535 | 100.32583 | 29897 ft | 437 kts | 4° |
| 2026-04-28 00:22 | 17.03531 | 100.33609 | 29897 ft | 436 kts | 3° |
| 2026-04-28 00:22 | 17.09526 | 100.34613 | 29901 ft | 438 kts | 3° |
| 2026-04-28 00:23 | 17.15537 | 100.35627 | 29897 ft | 437 kts | 3° |
| 2026-04-28 00:23 | 17.21566 | 100.36648 | 29891 ft | 438 kts | 3° |
| 2026-04-28 00:24 | 17.27589 | 100.37665 | 29909 ft | 439 kts | 3° |
| 2026-04-28 00:24 | 17.33596 | 100.38680 | 29364 ft | 440 kts | 3° |
| 2026-04-28 00:24 | 17.36602 | 100.39192 | 28811 ft | 435 kts | 3° |
| 2026-04-28 00:25 | 17.39577 | 100.39700 | 28259 ft | 430 kts | 3° |
| 2026-04-28 00:25 | 17.42517 | 100.40200 | 27727 ft | 425 kts | 3° |
| 2026-04-28 00:25 | 17.45423 | 100.40692 | 27231 ft | 420 kts | 3° |
| 2026-04-28 00:25 | 17.48294 | 100.41177 | 26709 ft | 416 kts | 3° |
| 2026-04-28 00:26 | 17.51140 | 100.41659 | 26188 ft | 412 kts | 4° |
| 2026-04-28 00:26 | 17.53954 | 100.42137 | 25664 ft | 408 kts | 4° |
| 2026-04-28 00:26 | 17.56744 | 100.42611 | 25142 ft | 404 kts | 4° |
| 2026-04-28 00:26 | 17.59502 | 100.43080 | 24620 ft | 400 kts | 4° |
| 2026-04-28 00:27 | 17.62236 | 100.43544 | 24117 ft | 396 kts | 4° |
| 2026-04-28 00:27 | 17.64941 | 100.44003 | 23594 ft | 392 kts | 4° |
| 2026-04-28 00:27 | 17.67626 | 100.44459 | 23082 ft | 389 kts | 4° |
| 2026-04-28 00:27 | 17.70286 | 100.44911 | 22565 ft | 385 kts | 4° |
| 2026-04-28 00:28 | 17.72898 | 100.45511 | 22076 ft | 384 kts | 11° |
| 2026-04-28 00:28 | 17.75462 | 100.46262 | 21554 ft | 381 kts | 12° |
| 2026-04-28 00:28 | 17.77999 | 100.47024 | 21045 ft | 377 kts | 12° |
| 2026-04-28 00:28 | 17.80511 | 100.47790 | 20535 ft | 374 kts | 12° |
| 2026-04-28 00:29 | 17.82995 | 100.48547 | 20039 ft | 370 kts | 12° |
| 2026-04-28 00:29 | 17.85457 | 100.49292 | 19531 ft | 366 kts | 12° |
| 2026-04-28 00:29 | 17.87893 | 100.50025 | 19020 ft | 363 kts | 12° |
| 2026-04-28 00:29 | 17.90309 | 100.50751 | 18518 ft | 359 kts | 13° |
| 2026-04-28 00:30 | 17.92696 | 100.51471 | 18015 ft | 355 kts | 13° |
| 2026-04-28 00:30 | 17.95050 | 100.52184 | 17535 ft | 350 kts | 13° |
| 2026-04-28 00:30 | 17.97378 | 100.52888 | 17023 ft | 346 kts | 13° |
| 2026-04-28 00:30 | 17.99681 | 100.53584 | 16518 ft | 343 kts | 13° |
| 2026-04-28 00:31 | 18.01962 | 100.54273 | 16037 ft | 338 kts | 13° |
| 2026-04-28 00:31 | 18.04207 | 100.54952 | 15545 ft | 333 kts | 13° |
| 2026-04-28 00:31 | 18.06424 | 100.55623 | 15049 ft | 330 kts | 13° |
| 2026-04-28 00:31 | 18.08614 | 100.56285 | 14557 ft | 326 kts | 13° |
| 2026-04-28 00:32 | 18.10781 | 100.56941 | 14068 ft | 321 kts | 14° |
| 2026-04-28 00:32 | 18.12916 | 100.57587 | 13598 ft | 318 kts | 14° |
| 2026-04-28 00:32 | 18.15027 | 100.58226 | 13165 ft | 313 kts | 14° |
| 2026-04-28 00:32 | 18.17101 | 100.58855 | 12727 ft | 308 kts | 14° |
| 2026-04-28 00:33 | 18.19125 | 100.59468 | 12287 ft | 304 kts | 14° |
| 2026-04-28 00:33 | 18.21146 | 100.60080 | 11816 ft | 301 kts | 14° |
| 2026-04-28 00:33 | 18.23148 | 100.60687 | 11344 ft | 299 kts | 14° |
| 2026-04-28 00:33 | 18.25143 | 100.61292 | 10874 ft | 297 kts | 14° |
| 2026-04-28 00:34 | 18.27124 | 100.61892 | 10405 ft | 296 kts | 14° |
| 2026-04-28 00:34 | 18.29091 | 100.62489 | 10068 ft | 290 kts | 14° |
| 2026-04-28 00:34 | 18.31044 | 100.63082 | 9937 ft | 298 kts | 14° |
| 2026-04-28 00:34 | 18.33062 | 100.63693 | 9539 ft | 301 kts | 14° |
| 2026-04-28 00:35 | 18.35053 | 100.64298 | 9167 ft | 295 kts | 14° |
| 2026-04-28 00:35 | 18.37021 | 100.64897 | 8790 ft | 294 kts | 14° |
| 2026-04-28 00:35 | 18.38975 | 100.65490 | 8422 ft | 291 kts | 14° |
| 2026-04-28 00:35 | 18.40882 | 100.66070 | 8061 ft | 288 kts | 14° |
| 2026-04-28 00:36 | 18.42831 | 100.66662 | 7705 ft | 286 kts | 14° |
| 2026-04-28 00:36 | 18.44742 | 100.67242 | 7346 ft | 284 kts | 14° |
| 2026-04-28 00:36 | 18.46636 | 100.67818 | 6978 ft | 283 kts | 14° |
| 2026-04-28 00:36 | 18.48542 | 100.68301 | 6640 ft | 280 kts | 5° |
| 2026-04-28 00:37 | 18.50474 | 100.68534 | 6293 ft | 279 kts | 4° |
| 2026-04-28 00:37 | 18.52396 | 100.68744 | 5940 ft | 277 kts | 4° |
| 2026-04-28 00:37 | 18.54310 | 100.68942 | 5596 ft | 275 kts | 4° |
| 2026-04-28 00:37 | 18.56144 | 100.69133 | 5484 ft | 261 kts | 4° |
| 2026-04-28 00:38 | 18.57902 | 100.69356 | 5386 ft | 247 kts | 12° |
| 2026-04-28 00:38 | 18.59482 | 100.69896 | 5166 ft | 234 kts | 19° |
| 2026-04-28 00:38 | 18.60992 | 100.70482 | 4881 ft | 228 kts | 20° |
| 2026-04-28 00:38 | 18.62457 | 100.71069 | 4613 ft | 222 kts | 20° |
| 2026-04-28 00:39 | 18.63878 | 100.71639 | 4385 ft | 214 kts | 20° |
| 2026-04-28 00:39 | 18.65235 | 100.72180 | 4141 ft | 202 kts | 20° |
| 2026-04-28 00:39 | 18.66520 | 100.72688 | 3770 ft | 197 kts | 20° |
| 2026-04-28 00:39 | 18.67873 | 100.73223 | 2898 ft | 217 kts | 20° |
| 2026-04-28 00:40 | 18.69333 | 100.73800 | 2283 ft | 222 kts | 21° |
| 2026-04-28 00:40 | 18.70713 | 100.74345 | 1941 ft | 203 kts | 21° |
| 2026-04-28 00:40 | 18.71986 | 100.74850 | 1546 ft | 187 kts | 20° |
| 2026-04-28 00:40 | 18.73145 | 100.75310 | 1185 ft | 170 kts | 20° |
| 2026-04-28 00:41 | 18.74263 | 100.75724 | 1231 ft | 167 kts | 17° |
| 2026-04-28 00:41 | 18.75362 | 100.76137 | 1748 ft | 175 kts | 23° |
| 2026-04-28 00:41 | 18.76538 | 100.76627 | 2130 ft | 192 kts | 21° |
| 2026-04-28 00:41 | 18.77843 | 100.77165 | 2686 ft | 209 kts | 21° |
| 2026-04-28 00:42 | 18.79250 | 100.77732 | 3392 ft | 221 kts | 21° |
| 2026-04-28 00:42 | 18.80707 | 100.78324 | 4230 ft | 228 kts | 25° |
| 2026-04-28 00:42 | 18.81865 | 100.79431 | 4892 ft | 225 kts | 62° |
| 2026-04-28 00:42 | 18.82143 | 100.81033 | 5010 ft | 229 kts | 101° |
| 2026-04-28 00:43 | 18.81375 | 100.82468 | 5027 ft | 233 kts | 142° |
| 2026-04-28 00:43 | 18.79872 | 100.83072 | 5043 ft | 234 kts | 179° |
| 2026-04-28 00:43 | 18.78343 | 100.82543 | 5036 ft | 238 kts | 219° |
| 2026-04-28 00:43 | 18.77177 | 100.81299 | 5051 ft | 238 kts | 226° |
| 2026-04-28 00:44 | 18.76042 | 100.80035 | 5031 ft | 237 kts | 226° |
| 2026-04-28 00:44 | 18.74913 | 100.78778 | 5023 ft | 236 kts | 226° |
| 2026-04-28 00:44 | 18.73752 | 100.77559 | 4993 ft | 237 kts | 215° |
| 2026-04-28 00:44 | 18.72309 | 100.76738 | 5024 ft | 237 kts | 206° |
| 2026-04-28 00:45 | 18.70830 | 100.75972 | 5016 ft | 236 kts | 206° |
| 2026-04-28 00:45 | 18.69356 | 100.75207 | 5013 ft | 236 kts | 206° |
| 2026-04-28 00:45 | 18.67879 | 100.74440 | 5013 ft | 237 kts | 206° |
| 2026-04-28 00:45 | 18.66402 | 100.73672 | 5025 ft | 237 kts | 206° |
| 2026-04-28 00:46 | 18.64923 | 100.72904 | 5024 ft | 237 kts | 206° |
| 2026-04-28 00:46 | 18.63447 | 100.72138 | 5025 ft | 237 kts | 206° |
| 2026-04-28 00:46 | 18.61967 | 100.71369 | 5027 ft | 237 kts | 206° |
| 2026-04-28 00:46 | 18.60491 | 100.70603 | 5028 ft | 237 kts | 206° |
| 2026-04-28 00:47 | 18.59012 | 100.69835 | 5030 ft | 237 kts | 206° |
| 2026-04-28 00:47 | 18.57581 | 100.68991 | 5012 ft | 236 kts | 220° |
| 2026-04-28 00:47 | 18.56617 | 100.67621 | 5014 ft | 236 kts | 249° |
| 2026-04-28 00:47 | 18.56399 | 100.65929 | 5035 ft | 239 kts | 267° |
| 2026-04-28 00:48 | 18.56403 | 100.64151 | 5036 ft | 239 kts | 269° |
| 2026-04-28 00:48 | 18.56133 | 100.62471 | 5020 ft | 236 kts | 245° |
| 2026-04-28 00:48 | 18.55136 | 100.61098 | 5024 ft | 235 kts | 216° |
| 2026-04-28 00:48 | 18.53656 | 100.60450 | 5034 ft | 237 kts | 188° |
| 2026-04-28 00:49 | 18.52026 | 100.60671 | 5037 ft | 240 kts | 158° |
| 2026-04-28 00:49 | 18.50697 | 100.61740 | 5030 ft | 245 kts | 129° |
| 2026-04-28 00:49 | 18.50054 | 100.63402 | 5022 ft | 250 kts | 97° |
| 2026-04-28 00:49 | 18.50317 | 100.65203 | 5033 ft | 253 kts | 65° |
| 2026-04-28 00:50 | 18.51437 | 100.66612 | 5024 ft | 254 kts | 33° |
| 2026-04-28 00:50 | 18.53029 | 100.67401 | 5036 ft | 254 kts | 21° |
| 2026-04-28 00:50 | 18.54682 | 100.68060 | 5025 ft | 253 kts | 21° |
| 2026-04-28 00:50 | 18.56276 | 100.68845 | 5024 ft | 253 kts | 25° |
| 2026-04-28 00:51 | 18.57890 | 100.69586 | 5027 ft | 253 kts | 20° |
| 2026-04-28 00:51 | 18.59516 | 100.70212 | 5016 ft | 242 kts | 18° |
| 2026-04-28 00:51 | 18.61058 | 100.70773 | 4919 ft | 226 kts | 18° |
| 2026-04-28 00:51 | 18.62503 | 100.71308 | 4673 ft | 216 kts | 19° |
| 2026-04-28 00:52 | 18.63880 | 100.71827 | 4436 ft | 204 kts | 19° |
| 2026-04-28 00:52 | 18.65188 | 100.72322 | 4192 ft | 196 kts | 19° |
| 2026-04-28 00:52 | 18.66451 | 100.72800 | 3953 ft | 191 kts | 19° |
| 2026-04-28 00:52 | 18.67683 | 100.73265 | 3721 ft | 186 kts | 19° |
| 2026-04-28 00:53 | 18.68892 | 100.73721 | 3466 ft | 184 kts | 20° |
| 2026-04-28 00:53 | 18.70071 | 100.74166 | 3235 ft | 181 kts | 20° |
| 2026-04-28 00:53 | 18.71247 | 100.74610 | 2978 ft | 176 kts | 20° |
| 2026-04-28 00:53 | 18.72386 | 100.75040 | 2747 ft | 169 kts | 20° |
| 2026-04-28 00:54 | 18.73471 | 100.75451 | 2459 ft | 162 kts | 20° |
| 2026-04-28 00:54 | 18.74508 | 100.75842 | 2182 ft | 153 kts | 20° |
| 2026-04-28 00:54 | 18.75489 | 100.76212 | 1878 ft | 146 kts | 19° |
| 2026-04-28 00:54 | 18.76431 | 100.76565 | 1637 ft | 143 kts | 22° |
| 2026-04-28 00:55 | 18.77381 | 100.76926 | 1427 ft | 142 kts | 18° |
| 2026-04-28 00:55 | 18.78302 | 100.77289 | 1165 ft | 139 kts | 20° |
| 2026-04-28 00:55 | 18.79170 | 100.77689 | 920 ft | 134 kts | 21° |
| 2026-04-28 00:55 | 18.80034 | 100.78039 | 717 ft | 130 kts | 20° |
| 2026-04-28 00:56 | 18.80717 | 100.78312 | 706 ft | 72 kts | 21° |
| 2026-04-28 00:56 | 18.81056 | 100.78443 | 702 ft | 29 kts | 20° |
| 2026-04-28 00:56 | 18.81111 | 100.78495 | 695 ft | 8 kts | 84° |
| 2026-04-28 00:56 | 18.81094 | 100.78554 | 699 ft | 9 kts | 110° |
| 2026-04-28 00:57 | 18.81065 | 100.78611 | 703 ft | 9 kts | 140° |
| 2026-04-28 00:57 | 18.81000 | 100.78634 | 694 ft | 10 kts | 165° |
| 2026-04-28 00:57 | 18.80924 | 100.78656 | 694 ft | 12 kts | 165° |
| 2026-04-28 00:57 | 18.80841 | 100.78634 | 692 ft | 13 kts | 209° |
| 2026-04-28 00:58 | 18.80760 | 100.78582 | 699 ft | 14 kts | 211° |
| 2026-04-28 00:58 | 18.80677 | 100.78534 | 694 ft | 14 kts | 209° |
| 2026-04-28 00:58 | 18.80595 | 100.78481 | 700 ft | 14 kts | 212° |
| 2026-04-28 00:58 | 18.80507 | 100.78428 | 703 ft | 15 kts | 209° |
| 2026-04-28 00:59 | 18.80421 | 100.78376 | 698 ft | 9 kts | 210° |
| 2026-04-28 00:59 | 18.80368 | 100.78344 | 707 ft | 7 kts | 199° |
| 2026-04-28 00:59 | 18.80332 | 100.78365 | 701 ft | 7 kts | 122° |
| 2026-04-28 00:59 | 18.80316 | 100.78394 | 706 ft | 1 kts | 118° |
| 2026-04-28 01:00 | 18.80311 | 100.78405 | 705 ft | 0 kts | 117° |